Accueil
METAR-TAF:

METAR-TAF

Aéroports :

Limoges, France

Aéroport de Limoges-Bellegarde

latitude: 45-52N, longitude: 001-11E, altitude: 396 m

Observation

Le bulletin a été fait il y a 17 minutes, à 19:00 UTC
Vent 4 kt de sud
Température 9°C
Humidité 76%
Pression 1018 hPa
Visibilité 10 km ou plus
pas de nuages en-dessous de 1500 mètres et pas de cumulonimbus.

METAR: LFBL 211900Z AUTO 17004KT CAVOK 09/05 Q1018 TEMPO 4000 BR

Heure: 20:17 (19:17 UTC)

Prévision

Le bulletin a été fait il y a 2 heures et 17 minutes, à 17:00 UTC
Prévision valable du 21 à 18 UTC au 22 à 18 UTC
Vent 7 kt de est/sud-est
Visibilité 10 km ou plus
pas de nuages en-dessous de 1500 mètres et pas de cumulonimbus.
Probabilité 30% :
Temporairement
du 21 à 20 UTC au 22 à 03 UTC
Visibilité: 4000 m
brume
Evoluant progressivement
du 22 à 10 UTC au 22 à 12 UTC
Vent 12 kt de sud

TAF: LFBL 211700Z 2118/2218 12007KT CAVOK PROB30 TEMPO 2120/2203 4000 BR BECMG 2210/2212 18012KT

Observations et prévisions météorologiques de plus de 4000 aéroports (messages METAR et TAF).

Les stations disponibles sont représentées par des disques jaunes et rouges sur la carte.

Passer la souris dessus pour voir le nom de la station.

Cliquer dessus pour voir les observations et prévisions météorologiques.

Pour changer de carte: cliquez sur les boutons verts avec une croix noire pour zoomer, sur le bouton vert avec un tiret pour effectuer un zoom arrière, ou sur les flèches vertes pour les cartes adjacentes.


METAR-TAF: